createdAt,value
2023-05-19T00:01:57.450Z,13.85
2023-05-19T00:04:40.645Z,13.10
2023-05-19T00:07:28.697Z,11.85
2023-05-19T00:10:11.659Z,12.35
2023-05-19T00:12:54.416Z,12.88
2023-05-19T00:15:37.071Z,14.13
2023-05-19T00:18:20.717Z,12.15
2023-05-19T00:21:02.948Z,13.70
2023-05-19T00:23:45.741Z,13.35
2023-05-19T00:26:28.153Z,11.63
2023-05-19T00:29:18.741Z,11.77
2023-05-19T00:32:01.735Z,15.38
2023-05-19T00:34:44.380Z,13.18
2023-05-19T00:37:26.938Z,12.88
2023-05-19T00:40:10.916Z,11.77
2023-05-19T00:42:53.255Z,13.70
2023-05-19T00:45:35.957Z,12.65
2023-05-19T00:48:18.542Z,15.20
2023-05-19T00:51:04.720Z,12.85
2023-05-19T00:53:49.481Z,13.40
2023-05-19T00:56:32.542Z,13.48
2023-05-19T00:59:17.033Z,13.80
2023-05-19T01:01:59.676Z,11.95
2023-05-19T01:04:43.937Z,13.07
2023-05-19T01:07:27.392Z,11.23
2023-05-19T01:10:10.592Z,12.73
2023-05-19T01:12:53.161Z,13.05
2023-05-19T01:15:52.310Z,12.73
2023-05-19T01:19:02.041Z,15.75
2023-05-19T01:22:13.231Z,15.07
2023-05-19T01:25:15.089Z,13.38
2023-05-19T01:28:21.913Z,15.77
2023-05-19T01:31:07.482Z,14.35
2023-05-19T01:33:51.765Z,44.53
2023-05-19T01:36:34.718Z,64.13
2023-05-19T01:39:17.399Z,80.88
2023-05-19T01:42:00.782Z,84.05
2023-05-19T01:44:44.267Z,55.33
2023-05-19T01:47:27.029Z,36.83
2023-05-19T01:50:09.968Z,25.48
2023-05-19T01:52:52.849Z,23.55
2023-05-19T01:55:48.194Z,20.98
2023-05-19T01:58:40.137Z,18.67
2023-05-19T02:01:28.751Z,16.25
2023-05-19T02:04:56.138Z,20.00
2023-05-19T02:07:45.886Z,15.20
2023-05-19T02:10:33.014Z,15.32
2023-05-19T02:13:18.884Z,15.57
2023-05-19T02:18:48.094Z,16.83
2023-05-19T02:21:31.229Z,17.38
2023-05-19T02:24:13.422Z,16.27
2023-05-19T02:26:55.975Z,17.45
2023-05-19T02:29:38.159Z,15.48
2023-05-19T02:32:21.827Z,16.33
2023-05-19T02:35:04.977Z,16.33
2023-05-19T02:37:47.453Z,17.60
2023-05-19T02:40:30.467Z,16.05
2023-05-19T02:43:13.351Z,16.40
2023-05-19T02:45:56.003Z,16.30
2023-05-19T02:48:38.464Z,16.50
2023-05-19T02:51:20.754Z,16.75
2023-05-19T02:54:03.248Z,18.63
2023-05-19T02:56:45.529Z,16.95
2023-05-19T02:59:28.103Z,17.95
2023-05-19T03:02:10.547Z,18.05
2023-05-19T03:04:53.280Z,20.38
2023-05-19T03:07:35.456Z,20.38
2023-05-19T03:10:17.994Z,20.60
2023-05-19T03:13:00.293Z,23.67
2023-05-19T03:15:43.226Z,21.75
2023-05-19T03:18:26.881Z,21.08
2023-05-19T03:21:09.537Z,19.30
2023-05-19T03:23:51.751Z,18.35
2023-05-19T03:26:34.431Z,17.83
2023-05-19T03:29:16.768Z,17.33
2023-05-19T03:32:00.047Z,20.75
2023-05-19T03:34:42.462Z,16.58
2023-05-19T03:37:25.062Z,17.48
2023-05-19T03:40:08.614Z,18.10
2023-05-19T03:42:54.484Z,16.58
2023-05-19T03:45:36.692Z,15.60
2023-05-19T03:48:32.627Z,14.80
2023-05-19T03:51:37.948Z,16.45
2023-05-19T03:54:36.172Z,15.15
2023-05-19T03:57:18.467Z,14.43
2023-05-19T04:00:04.125Z,12.57
2023-05-19T04:02:54.491Z,13.75
2023-05-19T04:05:37.323Z,14.70
2023-05-19T04:08:19.599Z,17.35
2023-05-19T04:11:02.191Z,15.45
2023-05-19T04:13:45.277Z,13.93
2023-05-19T04:16:28.953Z,14.57
2023-05-19T04:19:11.954Z,16.95
2023-05-19T04:21:54.933Z,15.25
2023-05-19T04:24:37.602Z,17.42
2023-05-19T04:27:22.024Z,15.77
2023-05-19T04:30:08.570Z,15.13
2023-05-19T04:32:52.199Z,13.27
2023-05-19T04:35:35.099Z,13.30
2023-05-19T04:38:20.158Z,12.25
2023-05-19T04:41:04.625Z,11.82
2023-05-19T04:43:48.417Z,11.65
2023-05-19T04:46:31.160Z,13.60
2023-05-19T04:49:14.559Z,15.25
2023-05-19T04:51:56.891Z,14.70
2023-05-19T04:54:44.400Z,12.23
2023-05-19T04:57:29.027Z,13.93
2023-05-19T05:00:14.284Z,10.65
2023-05-19T05:03:12.433Z,12.68
2023-05-19T05:05:56.907Z,12.45
2023-05-19T05:08:41.240Z,11.38
2023-05-19T05:11:24.498Z,15.20
2023-05-19T05:14:10.218Z,11.48
2023-05-19T05:16:53.728Z,14.15
2023-05-19T05:19:40.456Z,12.82
2023-05-19T05:22:23.661Z,12.90
2023-05-19T05:25:07.506Z,15.35
2023-05-19T05:27:50.917Z,14.40
2023-05-19T05:30:34.905Z,10.98
2023-05-19T05:33:18.286Z,8.95
2023-05-19T05:36:01.291Z,7.93
2023-05-19T05:38:44.913Z,8.90
2023-05-19T05:41:29.362Z,7.45
2023-05-19T05:44:11.960Z,9.20
2023-05-19T05:46:57.216Z,6.18
2023-05-19T05:49:42.148Z,6.90
2023-05-19T05:52:30.397Z,6.15
2023-05-19T05:55:15.949Z,10.23
2023-05-19T05:57:58.886Z,8.02
2023-05-19T06:00:45.449Z,8.50
2023-05-19T06:03:27.945Z,11.32
2023-05-19T06:08:57.056Z,8.55
2023-05-19T06:11:40.283Z,6.75
2023-05-19T06:14:22.760Z,4.32
2023-05-19T06:17:31.584Z,6.18
2023-05-19T06:20:14.474Z,4.55
2023-05-19T06:22:57.235Z,5.47
2023-05-19T06:25:42.357Z,3.97
2023-05-19T06:28:25.613Z,5.97
2023-05-19T06:31:08.364Z,5.20
2023-05-19T06:34:00.869Z,3.47
2023-05-19T06:36:43.686Z,8.75
2023-05-19T06:39:27.132Z,8.95
2023-05-19T06:42:10.146Z,7.65
2023-05-19T06:45:12.657Z,6.10
2023-05-19T06:47:55.675Z,11.43
2023-05-19T06:50:38.447Z,5.03
2023-05-19T06:53:21.428Z,3.50
2023-05-19T06:56:04.578Z,5.88
2023-05-19T06:58:49.353Z,12.55
2023-05-19T07:01:32.061Z,7.53
2023-05-19T07:04:15.398Z,8.93
2023-05-19T07:06:58.778Z,7.78
2023-05-19T07:09:41.405Z,7.95
2023-05-19T07:12:24.770Z,7.78
2023-05-19T07:15:08.000Z,6.60
2023-05-19T07:17:51.367Z,6.95
2023-05-19T07:20:34.041Z,5.10
2023-05-19T07:23:17.446Z,8.05
2023-05-19T07:26:01.790Z,7.10
2023-05-19T07:28:44.452Z,6.43
2023-05-19T07:31:26.875Z,4.90
2023-05-19T07:34:09.626Z,6.60
2023-05-19T07:36:52.235Z,5.03
2023-05-19T07:39:36.025Z,9.38
2023-05-19T07:42:18.348Z,6.97
2023-05-19T07:45:01.340Z,6.82
2023-05-19T07:47:43.749Z,4.78
2023-05-19T07:50:26.879Z,3.92
2023-05-19T07:53:09.155Z,6.13
2023-05-19T07:55:52.018Z,6.80
2023-05-19T07:58:34.397Z,5.60
2023-05-19T08:01:16.951Z,5.22
2023-05-19T08:03:59.559Z,5.72
2023-05-19T08:06:46.410Z,5.28
2023-05-19T08:12:11.520Z,6.90
2023-05-19T08:14:53.921Z,7.43
2023-05-19T08:17:36.515Z,7.20
2023-05-19T08:20:18.859Z,6.35
2023-05-19T08:23:01.497Z,4.93
2023-05-19T08:25:44.670Z,4.68
2023-05-19T08:28:27.329Z,5.28
2023-05-19T08:31:09.716Z,6.18
2023-05-19T08:33:52.738Z,6.65
2023-05-19T08:36:35.623Z,6.57
2023-05-19T08:39:21.237Z,4.80
2023-05-19T08:42:03.782Z,4.70
2023-05-19T08:44:46.582Z,6.25
2023-05-19T08:47:29.618Z,8.55
2023-05-19T08:50:15.390Z,6.35
2023-05-19T08:53:28.912Z,6.00
2023-05-19T08:56:25.382Z,5.35
2023-05-19T08:59:08.908Z,5.03
2023-05-19T09:01:51.910Z,5.22
2023-05-19T09:04:34.846Z,5.07
2023-05-19T09:07:18.976Z,7.10
2023-05-19T09:10:02.151Z,6.35
2023-05-19T09:12:47.059Z,7.18
2023-05-19T09:15:29.364Z,5.55
2023-05-19T09:18:14.440Z,4.38
2023-05-19T09:21:02.404Z,5.18
2023-05-19T09:23:47.720Z,7.53
2023-05-19T09:26:40.756Z,7.07
2023-05-19T09:29:23.728Z,9.98
2023-05-19T09:32:08.712Z,4.40
2023-05-19T09:34:51.226Z,7.80
2023-05-19T09:37:33.620Z,5.00
2023-05-19T09:40:16.728Z,7.57
2023-05-19T09:42:58.954Z,6.45
2023-05-19T09:45:41.450Z,9.27
2023-05-19T09:48:27.883Z,6.35
2023-05-19T09:51:11.004Z,7.40
2023-05-19T09:53:54.462Z,7.53
2023-05-19T09:56:39.568Z,6.20
2023-05-19T09:59:25.220Z,9.45
2023-05-19T10:02:15.964Z,5.95
2023-05-19T10:04:58.705Z,5.72
2023-05-19T10:07:41.602Z,6.25
2023-05-19T10:10:24.004Z,6.57
2023-05-19T10:13:08.040Z,7.03
2023-05-19T10:18:39.957Z,7.03
2023-05-19T10:21:22.604Z,9.98
2023-05-19T10:24:05.612Z,6.47
2023-05-19T10:27:00.068Z,10.75
2023-05-19T10:29:49.176Z,10.63
2023-05-19T10:32:33.300Z,10.13
2023-05-19T10:35:47.774Z,8.82
2023-05-19T10:38:43.092Z,8.10
2023-05-19T10:44:47.151Z,8.75
2023-05-19T10:47:30.536Z,7.47
2023-05-19T10:50:12.916Z,8.48
2023-05-19T10:52:56.790Z,8.98
2023-05-19T10:55:50.063Z,10.63
2023-05-19T10:58:46.277Z,10.10
2023-05-19T11:01:33.633Z,11.02
2023-05-19T11:04:16.688Z,11.65
2023-05-19T11:07:03.741Z,9.90
2023-05-19T11:09:53.328Z,9.65
2023-05-19T11:12:46.012Z,12.50
2023-05-19T11:15:31.358Z,10.02
2023-05-19T11:18:16.337Z,13.80
2023-05-19T11:21:02.690Z,12.13
2023-05-19T11:23:45.089Z,11.38
2023-05-19T11:26:42.261Z,9.73
2023-05-19T11:29:24.734Z,10.77
2023-05-19T11:32:07.541Z,13.70
2023-05-19T11:34:52.688Z,9.98
2023-05-19T11:37:35.924Z,11.57
2023-05-19T11:40:21.604Z,11.00
2023-05-19T11:43:04.116Z,15.07
2023-05-19T11:45:46.979Z,10.77
2023-05-19T11:48:30.270Z,12.35
2023-05-19T11:51:12.620Z,11.88
2023-05-19T11:53:55.881Z,12.77
2023-05-19T11:56:42.516Z,10.82
2023-05-19T11:59:34.984Z,10.88
2023-05-19T12:02:26.007Z,11.90
2023-05-19T12:05:19.226Z,12.82
2023-05-19T12:08:02.553Z,10.65
2023-05-19T12:10:49.016Z,11.55
2023-05-19T12:13:31.585Z,12.13
2023-05-19T12:16:14.482Z,9.35
2023-05-19T12:18:56.991Z,13.35
2023-05-19T12:21:40.231Z,11.55
2023-05-19T12:24:22.976Z,9.27
2023-05-19T12:27:20.194Z,9.80
2023-05-19T12:30:29.387Z,11.35
2023-05-19T12:33:12.734Z,10.45
2023-05-19T12:35:55.400Z,10.20
2023-05-19T12:38:39.682Z,13.52
2023-05-19T12:41:22.954Z,10.10
2023-05-19T12:44:17.618Z,15.80
2023-05-19T12:47:00.002Z,8.18
2023-05-19T12:50:00.939Z,13.40
2023-05-19T12:52:53.287Z,12.57
2023-05-19T12:55:43.385Z,9.63
2023-05-19T12:58:25.675Z,17.50
2023-05-19T13:01:15.326Z,13.95
2023-05-19T13:03:57.930Z,11.73
2023-05-19T13:06:41.899Z,13.35
2023-05-19T13:09:24.273Z,16.70
2023-05-19T13:12:07.136Z,17.45
2023-05-19T13:14:49.410Z,11.15
2023-05-19T13:17:32.104Z,11.13
2023-05-19T13:20:14.545Z,18.70
2023-05-19T13:22:57.518Z,24.08
2023-05-19T13:25:42.165Z,13.05
2023-05-19T13:28:25.235Z,11.50
2023-05-19T13:31:07.556Z,10.95
2023-05-19T13:33:50.170Z,10.20
2023-05-19T13:36:33.423Z,10.88
2023-05-19T13:39:16.038Z,10.55
2023-05-19T13:41:58.697Z,14.60
2023-05-19T13:44:41.399Z,12.48
2023-05-19T13:47:24.382Z,10.52
2023-05-19T13:50:07.625Z,15.48
2023-05-19T13:52:49.961Z,12.77
2023-05-19T13:55:33.343Z,12.90
2023-05-19T13:58:17.096Z,15.30
2023-05-19T14:01:00.270Z,12.35
2023-05-19T14:03:43.057Z,14.32
2023-05-19T14:06:25.739Z,15.02
2023-05-19T14:09:08.318Z,21.02
2023-05-19T14:11:50.968Z,21.63
2023-05-19T14:14:33.252Z,17.88
2023-05-19T14:17:15.970Z,18.98
2023-05-19T14:19:58.698Z,17.23
2023-05-19T14:22:41.951Z,19.35
2023-05-19T14:25:24.386Z,17.73
2023-05-19T14:28:07.047Z,18.10
2023-05-19T14:30:49.613Z,17.35
2023-05-19T14:33:35.017Z,18.17
2023-05-19T14:36:18.448Z,21.00
2023-05-19T14:39:02.025Z,22.63
2023-05-19T14:41:44.321Z,16.58
2023-05-19T14:44:31.927Z,18.52
2023-05-19T14:47:14.507Z,16.42
2023-05-19T14:49:58.264Z,23.00
2023-05-19T14:52:42.002Z,18.50
2023-05-19T14:55:24.981Z,22.83
2023-05-19T14:58:19.978Z,18.30
2023-05-19T15:01:11.549Z,22.65
2023-05-19T15:03:55.313Z,20.05
2023-05-19T15:06:38.377Z,19.85
2023-05-19T15:09:20.754Z,22.40
2023-05-19T15:12:03.808Z,17.00
2023-05-19T15:14:46.717Z,17.10
2023-05-19T15:17:29.392Z,27.17
2023-05-19T15:20:12.743Z,15.82
2023-05-19T15:22:55.697Z,17.33
2023-05-19T15:25:38.396Z,18.15
2023-05-19T15:28:21.271Z,23.92
2023-05-19T15:31:04.650Z,18.98
2023-05-19T15:33:47.398Z,21.60
2023-05-19T15:36:29.973Z,24.30
2023-05-19T15:39:12.941Z,21.40
2023-05-19T15:41:55.318Z,25.98
2023-05-19T15:44:38.598Z,19.80
2023-05-19T15:47:20.988Z,24.80
2023-05-19T15:50:03.789Z,21.58
2023-05-19T15:52:46.868Z,18.35
2023-05-19T15:55:29.623Z,19.65
2023-05-19T15:58:13.816Z,22.00
2023-05-19T16:00:56.669Z,19.00
2023-05-19T16:03:39.046Z,17.52
2023-05-19T16:06:21.848Z,20.30
2023-05-19T16:09:04.100Z,17.90
2023-05-19T16:11:46.645Z,20.92
2023-05-19T16:14:32.083Z,21.92
2023-05-19T16:17:15.378Z,22.77
2023-05-19T16:19:57.765Z,20.48
2023-05-19T16:22:41.133Z,29.85
2023-05-19T16:25:23.885Z,24.17
2023-05-19T16:28:06.642Z,24.27
2023-05-19T16:30:48.969Z,24.73
2023-05-19T16:33:31.504Z,27.33
2023-05-19T16:36:13.819Z,21.27
2023-05-19T16:38:56.450Z,20.15
2023-05-19T16:41:38.716Z,25.63
2023-05-19T16:44:21.263Z,25.02
2023-05-19T16:47:04.225Z,28.67
2023-05-19T16:49:46.873Z,20.70
2023-05-19T16:52:29.309Z,28.13
2023-05-19T16:55:12.227Z,23.45
2023-05-19T16:57:54.494Z,22.13
2023-05-19T17:00:38.115Z,23.08
2023-05-19T17:03:20.681Z,23.45
2023-05-19T17:06:03.555Z,24.17
2023-05-19T17:08:45.952Z,25.48
2023-05-19T17:11:29.312Z,22.08
2023-05-19T17:14:12.009Z,24.55
2023-05-19T17:16:54.821Z,23.70
2023-05-19T17:19:37.007Z,22.35
2023-05-19T17:22:19.602Z,23.88
2023-05-19T17:25:02.049Z,21.33
2023-05-19T17:27:44.583Z,23.55
2023-05-19T17:30:26.891Z,24.45
2023-05-19T17:33:09.561Z,26.52
2023-05-19T17:35:51.878Z,28.70
2023-05-19T17:38:35.171Z,27.40
2023-05-19T17:41:17.404Z,28.65
2023-05-19T17:44:00.011Z,26.70
2023-05-19T17:46:42.359Z,28.15
2023-05-19T17:49:25.812Z,26.08
2023-05-19T17:52:08.902Z,25.13
2023-05-19T17:54:51.985Z,23.73
2023-05-19T17:57:35.911Z,22.73
2023-05-19T18:00:19.473Z,27.27
2023-05-19T18:03:02.745Z,27.35
2023-05-19T18:05:46.069Z,25.15
2023-05-19T18:08:29.101Z,24.45
2023-05-19T18:11:15.970Z,19.90
2023-05-19T18:13:58.893Z,24.35
2023-05-19T18:16:41.550Z,27.30
2023-05-19T18:19:24.319Z,26.58
2023-05-19T18:22:09.584Z,27.00
2023-05-19T18:24:52.270Z,23.58
2023-05-19T18:27:35.193Z,30.75
2023-05-19T18:30:17.773Z,26.70
2023-05-19T18:33:03.905Z,24.77
2023-05-19T18:35:46.676Z,25.83
2023-05-19T18:38:29.599Z,22.05
2023-05-19T18:41:15.215Z,24.45
2023-05-19T18:43:58.383Z,22.77
2023-05-19T18:46:41.053Z,29.33
2023-05-19T18:49:25.110Z,28.08
2023-05-19T18:52:15.407Z,26.50
2023-05-19T18:54:59.640Z,24.23
2023-05-19T18:57:42.117Z,26.48
2023-05-19T19:00:25.932Z,27.05
2023-05-19T19:03:10.342Z,28.90
2023-05-19T19:05:59.791Z,28.88
2023-05-19T19:08:42.165Z,32.38
2023-05-19T19:11:24.950Z,31.15
2023-05-19T19:14:09.155Z,33.70
2023-05-19T19:16:52.180Z,30.88
2023-05-19T19:19:34.658Z,32.22
2023-05-19T19:22:17.498Z,37.88
2023-05-19T19:24:59.900Z,40.40
2023-05-19T19:27:42.523Z,37.55
2023-05-19T19:30:25.618Z,40.70
2023-05-19T19:33:08.223Z,37.72
2023-05-19T19:35:50.665Z,34.50
2023-05-19T19:38:33.383Z,38.50
2023-05-19T19:41:16.277Z,39.42
2023-05-19T19:43:58.966Z,37.75
2023-05-19T19:46:41.451Z,41.50
2023-05-19T19:49:24.173Z,40.40
2023-05-19T19:52:06.713Z,39.40
2023-05-19T19:54:49.398Z,41.72
2023-05-19T19:57:34.264Z,38.75
2023-05-19T20:00:18.298Z,42.97
2023-05-19T20:03:05.057Z,43.85
2023-05-19T20:05:48.874Z,43.47
2023-05-19T20:08:31.313Z,44.70
2023-05-19T20:11:14.252Z,46.10
2023-05-19T20:13:56.658Z,46.15
2023-05-19T20:16:40.939Z,45.70
2023-05-19T20:19:25.650Z,39.25
2023-05-19T20:22:08.657Z,45.80
2023-05-19T20:24:51.062Z,47.00
2023-05-19T20:27:33.979Z,47.55
2023-05-19T20:30:16.417Z,47.08
2023-05-19T20:32:59.161Z,45.65
2023-05-19T20:35:41.553Z,43.13
2023-05-19T20:38:24.331Z,49.70
2023-05-19T20:41:06.682Z,51.78
2023-05-19T20:43:49.438Z,54.70
2023-05-19T20:46:32.056Z,52.78
2023-05-19T20:49:14.886Z,52.40
2023-05-19T20:51:57.590Z,53.97
2023-05-19T20:54:40.460Z,50.72
2023-05-19T20:57:23.050Z,46.22
2023-05-19T21:00:06.441Z,48.60
2023-05-19T21:02:48.864Z,44.92
2023-05-19T21:05:31.871Z,48.55
2023-05-19T21:08:14.469Z,47.28
2023-05-19T21:10:57.405Z,44.13
2023-05-19T21:13:39.751Z,47.38
2023-05-19T21:16:22.953Z,45.88
2023-05-19T21:19:08.848Z,48.80
2023-05-19T21:24:34.060Z,46.15
2023-05-19T21:27:16.702Z,46.92
2023-05-19T21:29:58.997Z,48.70
2023-05-19T21:32:41.665Z,53.92
2023-05-19T21:35:24.032Z,49.28
2023-05-19T21:38:19.627Z,49.70
2023-05-19T21:41:04.823Z,55.03
2023-05-19T21:43:47.635Z,49.58
2023-05-19T21:46:29.943Z,54.97
2023-05-19T21:49:12.689Z,55.88
2023-05-19T21:51:54.955Z,45.95
2023-05-19T21:54:37.645Z,50.15
2023-05-19T21:57:19.885Z,47.45
2023-05-19T22:00:02.499Z,47.30
2023-05-19T22:02:53.953Z,47.33
2023-05-19T22:05:38.165Z,51.78
2023-05-19T22:08:21.020Z,50.28
2023-05-19T22:11:04.457Z,50.72
2023-05-19T22:13:47.138Z,55.58
2023-05-19T22:16:30.882Z,47.45
2023-05-19T22:19:14.713Z,54.95
2023-05-19T22:22:06.005Z,47.28
2023-05-19T22:24:55.381Z,51.08
2023-05-19T22:27:37.877Z,50.13
2023-05-19T22:30:20.150Z,49.55
2023-05-19T22:33:06.505Z,48.10
2023-05-19T22:35:48.798Z,49.05
2023-05-19T22:38:31.299Z,50.25
2023-05-19T22:41:13.508Z,50.63
2023-05-19T22:43:56.208Z,46.33
2023-05-19T22:46:38.560Z,49.70
2023-05-19T22:49:23.199Z,51.33
2023-05-19T22:52:05.776Z,45.17
2023-05-19T22:54:48.367Z,47.60
2023-05-19T22:57:31.933Z,44.65
2023-05-19T23:00:14.668Z,43.65
2023-05-19T23:02:58.378Z,45.78
2023-05-19T23:05:41.071Z,46.15
2023-05-19T23:08:23.346Z,46.30
2023-05-19T23:11:07.328Z,45.30
2023-05-19T23:13:49.513Z,44.97
2023-05-19T23:16:32.214Z,44.20
2023-05-19T23:19:14.628Z,46.17
2023-05-19T23:21:57.433Z,45.95
2023-05-19T23:24:39.612Z,44.38
2023-05-19T23:27:22.130Z,43.65
2023-05-19T23:30:04.795Z,45.28
2023-05-19T23:32:47.409Z,50.45
2023-05-19T23:35:29.701Z,41.55
2023-05-19T23:38:12.894Z,40.60
2023-05-19T23:40:55.178Z,44.58
2023-05-19T23:43:37.995Z,42.90
2023-05-19T23:46:20.743Z,41.33
2023-05-19T23:49:03.516Z,39.22
2023-05-19T23:51:45.746Z,46.90
2023-05-19T23:54:30.362Z,40.20
2023-05-19T23:57:12.563Z,35.58
2023-05-19T23:59:55.253Z,36.97
